Time,TemperatureF,DewpointF,PressureIn,WindDirection,WindDirectionDegrees,WindSpeedMPH,WindSpeedGustMPH,Humidity,HourlyPrecipIn,Conditions,Clouds,dailyrainin,SoftwareType,DateUTC
2013-07-15 00:02:00,78.0,71.0,30.18,ENE,66,1.0,5.0,80,0.00,,,0.00,,2013-07-15 05:02:00,
2013-07-15 00:11:00,78.0,71.0,30.18,ENE,66,1.0,5.0,80,0.00,,,0.00,,2013-07-15 05:11:00,
2013-07-15 00:21:00,78.0,70.0,30.18,East,89,3.0,7.0,77,0.00,,,0.00,,2013-07-15 05:21:00,
2013-07-15 00:32:00,78.0,70.0,30.18,East,89,3.0,7.0,77,0.00,,,0.00,,2013-07-15 05:32:00,
2013-07-15 00:43:00,78.0,70.0,30.18,East,89,3.0,7.0,77,0.00,,,0.00,,2013-07-15 05:43:00,
2013-07-15 00:53:00,78.0,70.0,30.17,ENE,78,3.0,7.0,77,0.00,,,0.00,,2013-07-15 05:53:00,
2013-07-15 01:02:00,78.0,70.0,30.17,ENE,78,3.0,7.0,77,0.00,,,0.00,,2013-07-15 06:02:00,
2013-07-15 01:11:00,78.0,70.0,30.17,ENE,78,3.0,7.0,77,0.00,,,0.00,,2013-07-15 06:11:00,
2013-07-15 01:22:00,78.0,71.0,30.17,East,81,2.0,9.0,78,0.00,,,0.00,,2013-07-15 06:22:00,
2013-07-15 01:32:00,78.0,71.0,30.17,East,81,2.0,9.0,78,0.00,,,0.00,,2013-07-15 06:32:00,
2013-07-15 01:42:00,78.0,71.0,30.17,East,81,2.0,9.0,78,0.00,,,0.00,,2013-07-15 06:42:00,
2013-07-15 01:53:00,77.0,70.0,30.18,East,100,1.0,5.0,80,0.00,,,0.00,,2013-07-15 06:53:00,
2013-07-15 02:01:00,77.0,70.0,30.18,East,100,1.0,5.0,80,0.00,,,0.00,,2013-07-15 07:01:00,
2013-07-15 02:11:00,77.0,70.0,30.18,East,100,1.0,5.0,80,0.00,,,0.00,,2013-07-15 07:11:00,
2013-07-15 02:21:00,76.0,70.0,30.17,ESE,108,1.0,7.0,81,0.00,,,0.00,,2013-07-15 07:21:00,
2013-07-15 02:33:00,76.0,70.0,30.17,ESE,108,1.0,7.0,81,0.00,,,0.00,,2013-07-15 07:33:00,
2013-07-15 02:44:00,76.0,70.0,30.17,ESE,108,1.0,7.0,81,0.00,,,0.00,,2013-07-15 07:44:00,
2013-07-15 02:53:00,76.0,70.0,30.17,SE,125,1.0,3.0,83,0.00,,,0.00,,2013-07-15 07:53:00,
2013-07-15 03:01:00,76.0,70.0,30.17,SE,125,1.0,3.0,83,0.00,,,0.00,,2013-07-15 08:01:00,
2013-07-15 03:11:00,76.0,70.0,30.17,SE,125,1.0,3.0,83,0.00,,,0.00,,2013-07-15 08:11:00,
2013-07-15 03:22:00,75.0,70.0,30.17,SE,125,0.0,2.0,84,0.00,,,0.00,,2013-07-15 08:22:00,
2013-07-15 03:32:00,75.0,70.0,30.17,SE,125,0.0,2.0,84,0.00,,,0.00,,2013-07-15 08:32:00,
2013-07-15 03:43:00,75.0,70.0,30.17,SE,125,0.0,2.0,84,0.00,,,0.00,,2013-07-15 08:43:00,
2013-07-15 03:53:00,74.0,70.0,30.18,ESE,115,0.0,5.0,86,0.00,,,0.00,,2013-07-15 08:53:00,
2013-07-15 04:01:00,74.0,70.0,30.18,ESE,115,0.0,5.0,86,0.00,,,0.00,,2013-07-15 09:01:00,
2013-07-15 04:11:00,74.0,70.0,30.18,ESE,115,0.0,5.0,86,0.00,,,0.00,,2013-07-15 09:11:00,
2013-07-15 04:22:00,74.0,70.0,30.18,ESE,116,0.0,1.0,86,0.00,,,0.00,,2013-07-15 09:22:00,
2013-07-15 04:32:00,74.0,70.0,30.18,ESE,116,0.0,1.0,86,0.00,,,0.00,,2013-07-15 09:32:00,
2013-07-15 04:43:00,74.0,70.0,30.18,ESE,116,0.0,1.0,86,0.00,,,0.00,,2013-07-15 09:43:00,
2013-07-15 04:52:00,73.0,69.0,30.18,ESE,116,0.0,4.0,87,0.00,,,0.00,,2013-07-15 09:52:00,
2013-07-15 05:02:00,73.0,69.0,30.18,ESE,116,0.0,4.0,87,0.00,,,0.00,,2013-07-15 10:02:00,
2013-07-15 05:11:00,73.0,69.0,30.18,ESE,116,0.0,4.0,87,0.00,,,0.00,,2013-07-15 10:11:00,
2013-07-15 05:22:00,73.0,69.0,30.19,ESE,116,1.0,2.0,88,0.00,,,0.00,,2013-07-15 10:22:00,
2013-07-15 05:32:00,73.0,69.0,30.19,ESE,116,1.0,2.0,88,0.00,,,0.00,,2013-07-15 10:32:00,
2013-07-15 05:43:00,73.0,69.0,30.19,ESE,116,1.0,2.0,88,0.00,,,0.00,,2013-07-15 10:43:00,
2013-07-15 05:53:00,73.0,69.0,30.20,East,86,1.0,3.0,88,0.00,,,0.00,,2013-07-15 10:53:00,
2013-07-15 06:01:00,73.0,69.0,30.20,East,86,1.0,3.0,88,0.00,,,0.00,,2013-07-15 11:01:00,
2013-07-15 06:11:00,73.0,69.0,30.20,East,86,1.0,3.0,88,0.00,,,0.00,,2013-07-15 11:11:00,
2013-07-15 06:22:00,73.0,70.0,30.21,East,87,1.0,3.0,89,0.00,,,0.00,,2013-07-15 11:22:00,
2013-07-15 06:32:00,73.0,70.0,30.21,East,87,1.0,3.0,89,0.00,,,0.00,,2013-07-15 11:32:00,
2013-07-15 06:42:00,73.0,70.0,30.21,East,87,1.0,3.0,89,0.00,,,0.00,,2013-07-15 11:42:00,
2013-07-15 06:52:00,73.0,69.0,30.22,ENE,73,3.0,7.0,88,0.00,,,0.00,,2013-07-15 11:52:00,
2013-07-15 07:01:00,73.0,69.0,30.22,ENE,73,3.0,7.0,88,0.00,,,0.00,,2013-07-15 12:01:00,
2013-07-15 07:11:00,73.0,69.0,30.22,ENE,73,3.0,7.0,88,0.00,,,0.00,,2013-07-15 12:11:00,
2013-07-15 07:22:00,73.0,69.0,30.22,ENE,73,3.0,7.0,88,0.00,,,0.00,,2013-07-15 12:22:00,
2013-07-15 07:32:00,73.0,69.0,30.22,ENE,73,3.0,7.0,88,0.00,,,0.00,,2013-07-15 12:32:00,
2013-07-15 07:53:00,77.0,71.0,30.23,SE,145,3.0,5.0,83,0.00,,,0.00,,2013-07-15 12:53:00,
2013-07-15 08:01:00,77.0,71.0,30.23,SE,145,3.0,5.0,83,0.00,,,0.00,,2013-07-15 13:01:00,
2013-07-15 08:11:00,77.0,71.0,30.23,SE,145,3.0,5.0,83,0.00,,,0.00,,2013-07-15 13:11:00,
2013-07-15 08:22:00,78.0,72.0,30.24,SE,135,3.0,8.0,81,0.00,,,0.00,,2013-07-15 13:22:00,
2013-07-15 08:33:00,78.0,72.0,30.24,SE,135,3.0,8.0,81,0.00,,,0.00,,2013-07-15 13:33:00,
2013-07-15 08:43:00,78.0,72.0,30.24,SE,135,3.0,8.0,81,0.00,,,0.00,,2013-07-15 13:43:00,
2013-07-15 08:53:00,80.0,73.0,30.25,SE,125,0.0,6.0,80,0.00,,,0.00,,2013-07-15 13:53:00,
2013-07-15 09:02:00,80.0,73.0,30.25,SE,125,0.0,6.0,80,0.00,,,0.00,,2013-07-15 14:02:00,
2013-07-15 09:11:00,80.0,73.0,30.25,SE,125,0.0,6.0,80,0.00,,,0.00,,2013-07-15 14:11:00,
2013-07-15 09:22:00,81.0,73.0,30.24,SE,133,2.0,-999.0,77,-99.99,,,-99.99,,2013-07-15 14:22:00,
2013-07-15 09:33:00,81.0,73.0,30.24,SE,133,2.0,-999.0,77,-99.99,,,-99.99,,2013-07-15 14:33:00,
2013-07-15 09:42:00,81.0,73.0,30.24,SE,133,2.0,-999.0,77,-99.99,,,-99.99,,2013-07-15 14:42:00,
2013-07-15 10:00:00,83.0,74.0,30.25,SSW,208,1.0,4.0,75,0.00,,,0.00,,2013-07-15 15:00:00,
2013-07-15 10:17:00,83.0,74.0,30.25,SSW,208,1.0,4.0,75,0.00,,,0.00,,2013-07-15 15:17:00,
2013-07-15 10:37:00,84.0,74.0,30.25,SE,144,0.0,5.0,71,0.00,,,0.00,,2013-07-15 15:37:00,
2013-07-15 10:48:00,84.0,74.0,30.25,SE,144,0.0,5.0,71,0.00,,,0.00,,2013-07-15 15:48:00,
2013-07-15 11:04:00,86.0,75.0,30.26,SSE,152,2.0,4.0,69,0.00,,,0.00,,2013-07-15 16:04:00,
2013-07-15 11:15:00,85.0,74.0,30.26,SSE,155,1.0,5.0,70,0.00,,,0.00,,2013-07-15 16:15:00,
2013-07-15 11:24:00,86.0,75.0,30.26,SSE,152,2.0,4.0,69,0.00,,,0.00,,2013-07-15 16:24:00,
2013-07-15 11:33:00,86.0,75.0,30.26,SSE,152,2.0,4.0,69,0.00,,,0.00,,2013-07-15 16:33:00,
2013-07-15 11:49:00,86.0,75.0,30.26,SSE,152,2.0,4.0,69,0.00,,,0.00,,2013-07-15 16:49:00,
2013-07-15 17:22:00,87.0,74.0,30.20,SSE,150,4.0,7.0,66,0.00,,,0.00,,2013-07-15 22:22:00,
2013-07-15 17:44:00,87.0,74.0,30.20,SSE,150,4.0,7.0,66,0.00,,,0.00,,2013-07-15 22:44:00,
2013-07-15 17:54:00,87.0,75.0,30.19,SE,131,4.0,10.0,67,0.00,,,0.00,,2013-07-15 22:54:00,
2013-07-15 18:05:00,87.0,75.0,30.19,SE,131,4.0,10.0,67,0.00,,,0.00,,2013-07-15 23:05:00,
2013-07-15 18:13:00,87.0,75.0,30.19,SE,131,4.0,10.0,67,0.00,,,0.00,,2013-07-15 23:13:00,
2013-07-15 18:27:00,88.0,75.0,30.19,South,172,1.0,5.0,65,0.00,,,0.00,,2013-07-15 23:27:00,
2013-07-15 18:37:00,88.0,75.0,30.19,South,172,1.0,5.0,65,0.00,,,0.00,,2013-07-15 23:37:00,
2013-07-15 18:50:00,88.0,75.0,30.19,South,172,1.0,5.0,65,0.00,,,0.00,,2013-07-15 23:50:00,
2013-07-15 19:03:00,86.0,74.0,30.20,SSE,154,4.0,7.0,67,0.00,,,0.00,,2013-07-16 00:03:00,
2013-07-15 19:25:00,85.0,73.0,30.20,East,96,1.0,6.0,68,0.00,,,0.00,,2013-07-16 00:25:00,
2013-07-15 19:33:00,85.0,73.0,30.20,East,96,1.0,6.0,68,0.00,,,0.00,,2013-07-16 00:33:00,
2013-07-15 19:50:00,85.0,73.0,30.20,East,96,1.0,6.0,68,0.00,,,0.00,,2013-07-16 00:50:00,
2013-07-15 20:07:00,84.0,73.0,30.21,SSE,160,0.0,6.0,70,0.00,,,0.00,,2013-07-16 01:07:00,
2013-07-15 20:15:00,84.0,73.0,30.21,SSE,160,0.0,6.0,70,0.00,,,0.00,,2013-07-16 01:15:00,
2013-07-15 20:26:00,83.0,73.0,30.21,SE,133,0.0,4.0,73,0.00,,,0.00,,2013-07-16 01:26:00,
2013-07-15 20:36:00,83.0,73.0,30.21,SE,133,0.0,4.0,73,0.00,,,0.00,,2013-07-16 01:36:00,
2013-07-15 20:49:00,83.0,73.0,30.21,SE,133,0.0,4.0,73,0.00,,,0.00,,2013-07-16 01:49:00,
2013-07-15 21:01:00,82.0,74.0,30.22,SE,133,0.0,2.0,76,0.00,,,0.00,,2013-07-16 02:01:00,
2013-07-15 21:11:00,82.0,74.0,30.22,SE,133,0.0,2.0,76,0.00,,,0.00,,2013-07-16 02:11:00,
2013-07-15 21:28:00,81.0,73.0,30.23,SE,133,1.0,3.0,78,0.00,,,0.00,,2013-07-16 02:28:00,
2013-07-15 21:35:00,81.0,73.0,30.23,SE,133,1.0,3.0,78,0.00,,,0.00,,2013-07-16 02:35:00,
2013-07-15 21:54:00,80.0,73.0,30.24,SE,133,0.0,1.0,79,0.00,,,0.00,,2013-07-16 02:54:00,
2013-07-15 22:07:00,80.0,73.0,30.24,SE,133,0.0,1.0,79,0.00,,,0.00,,2013-07-16 03:07:00,
2013-07-15 22:16:00,80.0,73.0,30.24,SE,133,0.0,1.0,79,0.00,,,0.00,,2013-07-16 03:16:00,
2013-07-15 22:28:00,79.0,73.0,30.25,SE,133,0.0,1.0,81,0.00,,,0.00,,2013-07-16 03:28:00,
2013-07-15 22:38:00,79.0,73.0,30.25,SE,133,0.0,1.0,81,0.00,,,0.00,,2013-07-16 03:38:00,
2013-07-15 22:49:00,79.0,73.0,30.25,SE,133,0.0,1.0,81,0.00,,,0.00,,2013-07-16 03:49:00,
2013-07-15 22:58:00,78.0,72.0,30.25,SE,133,1.0,2.0,82,0.00,,,0.00,,2013-07-16 03:58:00,
2013-07-15 23:01:00,78.0,72.0,30.25,SE,133,1.0,2.0,82,0.00,,,0.00,,2013-07-16 04:01:00,
2013-07-15 23:12:00,78.0,72.0,30.25,SE,133,1.0,2.0,82,0.00,,,0.00,,2013-07-16 04:12:00,
2013-07-15 23:22:00,78.0,72.0,30.27,SE,133,1.0,3.0,83,0.00,,,0.00,,2013-07-16 04:22:00,
2013-07-15 23:32:00,78.0,72.0,30.27,SE,133,1.0,3.0,83,0.00,,,0.00,,2013-07-16 04:32:00,
2013-07-15 23:43:00,78.0,72.0,30.27,SE,133,1.0,3.0,83,0.00,,,0.00,,2013-07-16 04:43:00,
2013-07-15 23:53:00,77.0,71.0,30.27,SE,132,0.0,5.0,83,0.00,,,0.00,,2013-07-16 04:53:00,